Latest Weather Observations for Gingin Airport

IDW60801

Issued at 10:32 pm WST Tuesday 28 April 2015 (issued every 30 minutes, with the page automatically refreshed every 10 minutes)

About weather observations | Map of weather stations | Latest weather observations for WA | Other Formats
Station Details ID: 009178 Name: GINGIN AERO Lat: -31.46 Lon: 115.86 Height: 73.0 m
Data from the previous 72 hours. | See also: Recent months at Gingin Airport
Date/Time
WST
Temp
°C
App
Temp
°C
Dew
Point
Rel
Hum
%
Delta-T
°C
Wind Press
QNH
hPa
Press
MSL
hPa
Rain
since 9 am
mm
Dir
 
Spd
km/h
Gust
km/h
Spd
kts
Gust
kts
28/10:30pm 15.2 13.4 8.0 62 3.6 NNW 7 9 4 5 1022.0 1021.8 0.0
28/10:00pm 15.0 13.2 8.0 63 3.5 W 7 9 4 5 1022.1 1021.9 0.0
28/09:30pm 15.9 13.7 7.9 59 4.0 NNW 9 13 5 7 1022.1 1021.9 0.0
28/09:00pm 15.9 15.4 7.7 58 4.1 CALM 0 6 0 3 1022.0 1021.8 0.0
28/08:30pm 16.2 14.3 8.9 62 3.7 ENE 9 11 5 6 1021.7 1021.5 0.0
28/08:00pm 17.2 17.0 9.1 59 4.2 CALM 0 7 0 4 1021.9 1021.7 0.0
28/07:30pm 17.7 16.3 8.8 56 4.6 ENE 6 6 3 3 1022.0 1021.8 0.0
28/07:00pm 18.6 17.1 8.6 52 5.2 ENE 6 7 3 4 1021.9 1021.7 0.0
28/06:30pm 18.9 18.3 8.8 52 5.3 ENE 2 7 1 4 1021.7 1021.5 0.0
28/06:00pm 20.3 19.9 8.3 46 6.2 CALM 0 0 0 0 1021.3 1021.1 0.0
28/05:30pm 21.1 19.3 8.0 43 6.8 ENE 7 9 4 5 1021.1 1020.9 0.0
28/05:00pm 21.8 19.4 7.2 39 7.5 ENE 9 11 5 6 1021.1 1020.9 0.0
28/04:30pm 22.7 20.9 7.3 37 8.0 NNE 6 7 3 4 1021.1 1020.9 0.0
28/04:00pm 23.4 22.1 7.5 36 8.3 NNE 4 7 2 4 1020.8 1020.6 0.0
28/03:30pm 23.8 21.1 5.7 31 9.2 NE 9 13 5 7 1020.6 1020.4 0.0
28/03:00pm 24.0 20.5 5.4 30 9.4 NNE 13 17 7 9 1020.6 1020.4 0.0
28/02:30pm 24.1 20.1 5.0 29 9.6 NNE 15 20 8 11 1020.6 1020.4 0.0
28/02:00pm 24.3 20.3 5.1 29 9.7 NNE 15 20 8 11 1020.4 1020.2 0.0
28/01:30pm 23.8 19.5 5.2 30 9.4 NE 17 20 9 11 1020.8 1020.6 0.0
28/01:00pm 23.8 19.5 5.2 30 9.3 NNE 17 24 9 13 1021.1 1020.9 0.0
28/12:30pm 23.2 18.5 5.1 31 9.1 NNE 19 24 10 13 1021.8 1021.6 0.0
28/12:00pm 23.6 17.9 5.0 30 9.3 NNE 24 32 13 17 1022.0 1021.8 0.0
28/11:30am 22.4 17.6 4.9 32 8.7 NNE 19 28 10 15 1022.1 1021.9 0.0
28/11:00am 22.2 17.3 5.2 33 8.4 NE 20 30 11 16 1022.4 1022.2 0.0
28/10:30am 21.9 16.7 5.3 34 8.3 NE 22 33 12 18 1022.6 1022.4 0.0
28/10:00am 21.8 15.0 5.3 34 8.2 NE 30 37 16 20 1022.8 1022.6 0.0
28/09:30am 20.4 14.4 5.2 37 7.5 NE 26 39 14 21 1022.7 1022.5 0.0
28/09:00am 19.6 13.9 4.9 38 7.1 NE 24 32 13 17 1022.9 1022.7 0.0
28/08:30am 18.3 12.9 4.5 40 6.6 NE 22 33 12 18 1023.0 1022.8 0.0
28/08:00am 17.3 12.5 4.6 43 6.0 NE 19 28 10 15 1023.1 1022.9 0.0
28/07:30am 16.5 11.6 4.2 44 5.8 NE 19 30 10 16 1023.0 1022.8 0.0
28/07:00am 15.5 11.3 3.9 46 5.3 NE 15 22 8 12 1022.8 1022.6 0.0
28/06:30am 15.6 11.3 3.4 44 5.6 NE 15 20 8 11 1022.6 1022.4 0.0
28/06:00am 16.4 11.2 3.5 42 5.9 NE 20 32 11 17 1022.3 1022.1 0.0
28/05:30am 16.8 11.8 3.5 41 6.2 NE 19 30 10 16 1022.0 1021.8 0.0
28/05:00am 17.2 11.2 3.5 40 6.3 NE 24 32 13 17 1021.8 1021.6 0.0
28/04:30am 16.9 11.7 3.6 41 6.2 NE 20 28 11 15 1021.9 1021.7 0.0
28/04:00am 17.2 12.0 3.5 40 6.3 NE 20 26 11 14 1021.8 1021.6 0.0
28/03:30am 17.1 11.5 3.4 40 6.4 NE 22 33 12 18 1021.8 1021.6 0.0
28/03:00am 17.2 12.2 3.8 41 6.2 NE 19 28 10 15 1022.1 1021.9 0.0
28/02:30am 17.3 12.7 3.9 41 6.3 NE 17 24 9 13 1022.2 1022.0 0.0
28/02:00am 16.9 12.3 3.9 42 6.1 ENE 17 22 9 12 1022.2 1022.0 0.0
28/01:30am 16.4 12.2 3.8 43 5.9 ENE 15 22 8 12 1022.4 1022.2 0.0
28/01:00am 16.5 12.8 4.2 44 5.7 ENE 13 19 7 10 1022.5 1022.3 0.0
28/12:30am 17.0 12.8 4.0 42 6.1 ENE 15 19 8 10 1022.6 1022.4 0.0
28/12:00am 17.2 12.2 3.8 41 6.2 ENE 19 20 10 11 1022.7 1022.5 0.0
 
Date/Time
WST
Temp
°C
App
Temp
°C
Dew
Point
Rel
Hum
%
Delta-T
°C
Wind Press
QNH
hPa
Press
MSL
hPa
Rain
since 9 am
mm
Dir
 
Spd
km/h
Gust
km/h
Spd
kts
Gust
kts
27/11:30pm 17.0 12.1 4.0 42 6.1 ENE 19 20 10 11 1023.0 1022.8 0.0
27/11:00pm 16.9 12.0 3.9 42 6.1 ENE 19 22 10 12 1023.2 1023.0 0.0
27/10:30pm 16.7 12.5 3.7 42 6.0 ENE 15 19 8 10 1023.3 1023.1 0.0
27/10:00pm 16.6 12.1 4.0 43 5.9 ENE 17 19 9 10 1023.2 1023.0 0.0
27/09:30pm 16.5 12.0 4.2 44 5.8 ENE 17 20 9 11 1023.2 1023.0 0.0
27/09:00pm 16.4 13.0 4.1 44 5.7 ENE 11 13 6 7 1023.0 1022.8 0.0
27/08:30pm 16.5 12.8 4.2 44 5.8 ENE 13 15 7 8 1022.7 1022.5 0.0
27/08:00pm 16.9 13.5 3.9 42 6.1 ENE 11 13 6 7 1022.7 1022.5 0.0
27/07:30pm 17.8 14.4 4.0 40 6.5 ENE 11 13 6 7 1022.7 1022.5 0.0
27/07:00pm 19.0 15.2 4.0 37 7.1 ENE 13 15 7 8 1022.6 1022.4 0.0
27/06:30pm 19.8 16.1 4.3 36 7.5 ENE 13 15 7 8 1022.7 1022.5 0.0
27/06:00pm 20.8 17.3 3.5 32 8.2 ENE 11 13 6 7 1022.3 1022.1 0.0
27/05:30pm 23.3 19.4 3.3 27 9.7 NE 13 19 7 10 1021.9 1021.7 0.0
27/05:00pm 25.1 20.0 3.1 24 10.7 ENE 19 26 10 14 1021.9 1021.7 0.0
27/04:30pm 25.5 19.8 2.9 23 11.0 NE 22 28 12 15 1021.8 1021.6 0.0
27/04:00pm 25.9 19.4 2.6 22 11.3 ENE 26 33 14 18 1021.8 1021.6 0.0
27/03:30pm 26.0 20.6 2.7 22 11.4 NE 20 30 11 16 1022.0 1021.8 0.0
27/03:00pm 25.9 20.2 2.6 22 11.3 NNE 22 35 12 19 1022.0 1021.8 0.0
27/02:30pm 25.8 20.6 2.5 22 11.3 NE 19 32 10 17 1021.9 1021.7 0.0
27/02:00pm 26.0 20.3 2.7 22 11.3 ENE 22 35 12 19 1021.9 1021.7 0.0
27/01:30pm 25.5 19.2 4.0 25 10.7 ENE 26 37 14 20 1022.1 1021.9 0.0
27/01:00pm 25.1 19.4 4.8 27 10.2 ENE 24 35 13 19 1022.6 1022.4 0.0
27/12:30pm 24.5 18.4 4.8 28 9.9 NE 26 35 14 19 1023.1 1022.9 0.0
27/12:00pm 24.1 17.8 5.5 30 9.4 NE 28 39 15 21 1023.6 1023.4 0.0
27/11:30am 23.2 16.4 5.1 31 9.1 ENE 30 39 16 21 1024.0 1023.8 0.0
27/11:00am 22.6 15.9 5.5 33 8.6 ENE 30 41 16 22 1024.5 1024.3 0.0
27/10:30am 21.9 15.3 6.2 36 8.0 ENE 30 37 16 20 1025.0 1024.8 0.0
27/10:00am 20.2 13.8 5.4 38 7.3 NE 28 37 15 20 1025.1 1024.9 0.0
27/09:30am 19.4 12.7 5.5 40 6.8 NE 30 43 16 23 1025.1 1024.9 0.0
27/09:00am 18.6 11.5 5.5 42 6.4 NE 32 48 17 26 1025.2 1025.0 0.0
27/08:55am 18.5 12.1 5.4 42 6.4 NE 28 48 15 26 1025.2 1025.0 0.0
27/08:30am 17.7 11.8 5.6 45 5.9 ENE 26 37 14 20 1025.1 1024.9 0.0
27/08:00am 16.7 11.5 5.3 47 5.4 ENE 22 28 12 15 1025.0 1024.8 0.0
27/07:30am 15.8 10.9 5.1 49 5.1 ENE 20 30 11 16 1024.8 1024.6 0.0
27/07:00am 15.0 10.3 5.0 51 4.7 ENE 19 26 10 14 1024.6 1024.4 0.0
27/06:30am 14.8 10.5 5.1 52 4.6 ENE 17 26 9 14 1024.4 1024.2 0.0
27/06:00am 15.3 10.5 4.9 50 4.9 ENE 19 24 10 13 1024.1 1023.9 0.0
27/05:30am 15.0 10.3 5.0 51 4.7 ENE 19 26 10 14 1023.9 1023.7 0.0
27/05:00am 15.1 10.2 5.0 51 4.7 ENE 20 28 11 15 1023.8 1023.6 0.0
27/04:30am 14.9 10.5 4.9 51 4.7 ENE 17 22 9 12 1023.6 1023.4 0.0
27/04:00am 15.5 10.6 5.1 50 4.9 ENE 20 33 11 18 1023.4 1023.2 0.0
27/03:30am 15.3 10.3 4.7 49 5.0 ENE 20 30 11 16 1023.5 1023.3 0.0
27/03:00am 15.3 10.5 4.4 48 5.1 ENE 19 26 10 14 1023.6 1023.4 0.0
27/02:30am 14.7 9.9 4.4 50 4.8 ENE 19 22 10 12 1023.6 1023.4 0.0
27/02:00am 14.2 9.8 4.5 52 4.5 ENE 17 20 9 11 1023.8 1023.6 0.0
27/01:30am 13.1 8.9 3.7 53 4.2 E 15 17 8 9 1023.9 1023.7 0.0
27/01:00am 13.5 10.1 4.1 53 4.3 ENE 11 15 6 8 1023.9 1023.7 0.0
27/12:30am 13.6 10.2 3.9 52 4.4 E 11 13 6 7 1023.8 1023.6 0.0
27/12:00am 12.7 9.0 4.2 56 3.8 E 13 17 7 9 1023.9 1023.7 0.0
 
Date/Time
WST
Temp
°C
App
Temp
°C
Dew
Point
Rel
Hum
%
Delta-T
°C
Wind Press
QNH
hPa
Press
MSL
hPa
Rain
since 9 am
mm
Dir
 
Spd
km/h
Gust
km/h
Spd
kts
Gust
kts
26/11:30pm 9.9 7.3 3.4 64 2.8 ESE 6 7 3 4 1024.0 1023.8 0.0
26/11:00pm 9.8 6.9 2.6 61 3.1 ESE 7 9 4 5 1024.2 1024.0 0.0
26/10:30pm 11.9 8.7 2.9 54 4.0 ESE 9 11 5 6 1024.3 1024.1 0.0
26/10:00pm 12.7 9.5 3.1 52 4.2 ESE 9 11 5 6 1024.3 1024.1 0.0
26/09:30pm 13.0 9.4 3.1 51 4.4 ESE 11 13 6 7 1024.3 1024.1 0.0
26/09:00pm 14.2 11.0 3.1 47 5.0 ESE 9 11 5 6 1024.3 1024.1 0.0
26/08:30pm 15.2 11.3 3.4 45 5.4 ESE 13 15 7 8 1024.3 1024.1 0.0
26/08:00pm 16.3 12.3 3.0 41 6.0 ESE 13 15 7 8 1024.2 1024.0 0.0
26/07:30pm 17.2 13.2 3.1 39 6.5 E 13 15 7 8 1024.0 1023.8 0.0
26/07:00pm 17.6 13.6 2.8 37 6.8 E 13 17 7 9 1023.6 1023.4 0.0
26/06:30pm 19.1 14.7 2.9 34 7.6 E 15 19 8 10 1023.3 1023.1 0.0
26/06:00pm 20.7 16.0 3.0 31 8.3 E 17 20 9 11 1022.9 1022.7 0.0
26/05:30pm 22.2 16.9 2.8 28 9.2 ENE 20 28 11 15 1022.6 1022.4 0.0
26/05:00pm 23.2 17.5 2.7 26 9.8 ENE 22 33 12 18 1022.5 1022.3 0.0
26/04:30pm 24.0 17.8 2.2 24 10.4 ENE 24 33 13 18 1022.4 1022.2 0.0
26/04:00pm 24.3 18.1 1.9 23 10.6 ENE 24 33 13 18 1022.3 1022.1 0.0
26/03:30pm 24.4 18.2 1.9 23 10.7 E 24 37 13 20 1022.2 1022.0 0.0
26/03:00pm 24.2 17.9 1.8 23 10.6 ENE 24 35 13 19 1022.1 1021.9 0.0
26/02:30pm 24.6 18.1 2.7 24 10.6 ENE 26 37 14 20 1022.2 1022.0 0.0
26/02:00pm 24.3 18.9 2.5 24 10.4 ENE 20 35 11 19 1022.3 1022.1 0.0
26/01:30pm 24.2 18.6 3.5 26 10.1 ENE 22 35 12 19 1022.5 1022.3 0.0
26/01:00pm 23.9 18.0 3.8 27 9.8 ENE 24 32 13 17 1022.9 1022.7 0.0
26/12:30pm 23.4 17.5 3.9 28 9.6 ENE 24 35 13 19 1023.2 1023.0 0.0
26/12:00pm 23.0 16.5 4.5 30 9.1 ENE 28 35 15 19 1024.0 1023.8 0.0
26/11:30am 22.6 17.4 5.5 33 8.6 NE 22 30 12 16 1024.4 1024.2 0.0
26/11:00am 21.2 15.9 5.1 35 7.9 ENE 22 30 12 16 1024.9 1024.7 0.0
26/10:30am 20.1 14.9 5.4 38 7.3 ENE 22 30 12 16 1025.2 1025.0 0.0
26/10:00am 19.6 14.0 5.6 40 6.9 ENE 24 32 13 17 1025.4 1025.2 0.0
26/09:30am 18.8 13.2 5.6 42 6.5 ENE 24 35 13 19 1025.6 1025.4 0.0
26/09:00am 16.9 11.7 5.5 47 5.5 ENE 22 30 12 16 1025.8 1025.6 0.0
26/08:30am 15.6 10.3 4.9 49 5.1 ENE 22 30 12 16 1025.8 1025.6 0.0
26/08:00am 14.5 9.6 5.0 53 4.4 ENE 20 28 11 15 1025.5 1025.3 0.0
26/07:30am 12.8 8.4 4.8 58 3.7 E 17 24 9 13 1025.1 1024.9 0.0
26/07:00am 11.5 7.8 4.3 61 3.2 E 13 19 7 10 1024.8 1024.6 0.0
26/06:30am 11.6 6.7 4.3 61 3.3 E 19 24 10 13 1024.6 1024.4 0.0
26/06:00am 11.6 6.7 4.3 61 3.3 E 19 22 10 12 1024.4 1024.2 0.0
26/05:30am 11.0 6.9 4.2 63 3.0 E 15 17 8 9 1024.4 1024.2 0.0
26/05:00am 11.5 7.3 4.0 60 3.3 E 15 20 8 11 1024.3 1024.1 0.0
26/04:30am 11.8 7.3 4.3 60 3.4 ESE 17 20 9 11 1024.1 1023.9 0.0
26/04:00am 11.6 6.7 4.3 61 3.3 ESE 19 20 10 11 1024.1 1023.9 0.0
26/03:30am 11.3 7.6 4.3 62 3.2 ESE 13 17 7 9 1024.1 1023.9 0.0
26/03:00am 11.5 7.8 4.5 62 3.2 ESE 13 17 7 9 1024.3 1024.1 0.0
26/02:30am 11.8 8.1 4.3 60 3.4 E 13 15 7 8 1024.2 1024.0 0.0
26/02:00am 12.8 8.7 4.5 57 3.8 ESE 15 19 8 10 1024.3 1024.1 0.0
26/01:30am 13.5 9.0 4.4 54 4.2 E 17 22 9 12 1024.3 1024.1 0.0
26/01:00am 13.8 9.0 4.4 53 4.3 ESE 19 22 10 12 1024.2 1024.0 0.0
26/12:30am 13.5 8.9 3.8 52 4.4 ESE 17 22 9 12 1024.0 1023.8 0.0
26/12:00am 12.8 8.5 3.5 53 4.1 ESE 15 17 8 9 1024.0 1023.8 0.0
 
Date/Time
WST
Temp
°C
App
Temp
°C
Dew
Point
Rel
Hum
%
Delta-T
°C
Wind Press
QNH
hPa
Press
MSL
hPa
Rain
since 9 am
mm
Dir
 
Spd
km/h
Gust
km/h
Spd
kts
Gust
kts
25/11:30pm 13.8 9.1 3.0 48 4.8 ESE 17 20 9 11 1024.2 1024.0 0.0
25/11:00pm 13.2 8.9 3.0 50 4.5 ESE 15 19 8 10 1024.3 1024.1 0.0

Other Formats:

Comma delimited format used in spreadsheet applications
http://www.bom.gov.au/fwo/IDW60801/IDW60801.95612.axf

JavaScript Object Notation format (JSON) in row-major order
http://www.bom.gov.au/fwo/IDW60801/IDW60801.95612.json